createdAt,value
2022-09-14T00:01:27.606Z,1.50
2022-09-14T00:04:16.455Z,1.83
2022-09-14T00:06:43.693Z,1.70
2022-09-14T00:09:29.283Z,1.50
2022-09-14T00:11:56.438Z,1.83
2022-09-14T00:14:23.479Z,1.67
2022-09-14T00:16:52.126Z,2.00
2022-09-14T00:19:25.797Z,1.52
2022-09-14T00:21:55.615Z,1.80
2022-09-14T00:24:23.529Z,1.52
2022-09-14T00:26:51.276Z,1.52
2022-09-14T00:29:18.389Z,1.60
2022-09-14T00:31:45.683Z,1.63
2022-09-14T00:34:15.250Z,1.58
2022-09-14T00:36:45.390Z,1.70
2022-09-14T00:39:13.387Z,1.50
2022-09-14T00:41:43.788Z,1.63
2022-09-14T00:44:11.205Z,1.85
2022-09-14T00:46:50.609Z,1.80
2022-09-14T00:49:23.354Z,1.45
2022-09-14T00:51:59.037Z,1.65
2022-09-14T00:54:26.622Z,1.98
2022-09-14T00:56:54.899Z,1.55
2022-09-14T00:59:29.504Z,1.80
2022-09-14T01:01:56.525Z,1.85
2022-09-14T01:04:24.276Z,2.15
2022-09-14T01:07:00.362Z,2.10
2022-09-14T01:09:46.456Z,1.70
2022-09-14T01:12:25.010Z,1.70
2022-09-14T01:14:59.516Z,1.60
2022-09-14T01:17:51.348Z,1.92
2022-09-14T01:20:21.199Z,2.30
2022-09-14T01:23:10.134Z,2.00
2022-09-14T01:25:40.034Z,1.90
2022-09-14T01:28:23.171Z,2.17
2022-09-14T01:30:54.339Z,2.00
2022-09-14T01:33:48.484Z,1.88
2022-09-14T01:36:16.339Z,2.17
2022-09-14T01:38:50.680Z,2.10
2022-09-14T01:41:22.595Z,2.17
2022-09-14T01:43:58.012Z,2.30
2022-09-14T01:46:31.896Z,1.90
2022-09-14T01:49:02.482Z,1.60
2022-09-14T01:51:55.059Z,2.00
2022-09-14T01:54:43.187Z,2.60
2022-09-14T01:57:17.931Z,1.90
2022-09-14T01:59:46.735Z,2.30
2022-09-14T02:02:24.972Z,2.22
2022-09-14T02:05:01.310Z,2.30
2022-09-14T02:07:28.447Z,2.72
2022-09-14T02:09:56.596Z,2.22
2022-09-14T02:12:23.899Z,3.92
2022-09-14T02:14:52.847Z,3.17
2022-09-14T02:17:20.637Z,2.80
2022-09-14T02:19:54.772Z,3.60
2022-09-14T02:22:21.749Z,3.83
2022-09-14T02:24:49.584Z,4.28
2022-09-14T02:27:16.655Z,3.97
2022-09-14T02:29:43.675Z,3.70
2022-09-14T02:32:40.679Z,3.70
2022-09-14T02:35:19.484Z,3.50
2022-09-14T02:38:20.472Z,3.97
2022-09-14T02:40:50.414Z,3.10
2022-09-14T02:43:54.396Z,3.28
2022-09-14T02:46:21.287Z,3.50
2022-09-14T02:49:12.503Z,3.72
2022-09-14T02:51:54.369Z,2.85
2022-09-14T02:54:29.315Z,2.78
2022-09-14T02:57:00.624Z,2.60
2022-09-14T02:59:27.766Z,2.55
2022-09-14T03:01:55.958Z,2.00
2022-09-14T03:04:23.150Z,2.47
2022-09-14T03:06:50.266Z,2.67
2022-09-14T03:09:17.257Z,2.65
2022-09-14T03:11:44.176Z,2.33
2022-09-14T03:14:11.877Z,2.38
2022-09-14T03:16:39.579Z,2.35
2022-09-14T03:19:06.749Z,2.40
2022-09-14T03:21:33.943Z,2.60
2022-09-14T03:24:00.912Z,2.30
2022-09-14T03:26:29.791Z,2.60
2022-09-14T03:28:59.445Z,2.50
2022-09-14T03:31:27.124Z,2.55
2022-09-14T03:33:56.560Z,2.30
2022-09-14T03:36:24.654Z,2.55
2022-09-14T03:38:54.203Z,2.58
2022-09-14T03:41:22.514Z,2.60
2022-09-14T03:43:49.893Z,2.92
2022-09-14T03:46:22.148Z,2.22
2022-09-14T03:48:49.688Z,2.42
2022-09-14T03:51:16.752Z,2.45
2022-09-14T03:53:45.272Z,2.20
2022-09-14T03:56:20.933Z,2.22
2022-09-14T03:58:49.037Z,2.10
2022-09-14T04:01:19.516Z,8.35
2022-09-14T04:03:47.286Z,2.42
2022-09-14T04:06:16.150Z,6.15
2022-09-14T04:08:44.574Z,5.88
2022-09-14T04:11:20.622Z,3.50
2022-09-14T04:13:48.467Z,4.32
2022-09-14T04:16:16.683Z,3.15
2022-09-14T04:18:44.417Z,2.83
2022-09-14T04:21:15.218Z,3.85
2022-09-14T04:24:10.103Z,2.47
2022-09-14T04:26:30.989Z,2.70
2022-09-14T04:28:58.382Z,2.30
2022-09-14T04:31:26.333Z,2.58
2022-09-14T04:33:56.489Z,2.40
2022-09-14T04:36:28.630Z,1.88
2022-09-14T04:38:57.919Z,2.42
2022-09-14T04:41:25.244Z,1.80
2022-09-14T04:43:53.029Z,2.60
2022-09-14T04:46:22.372Z,2.67
2022-09-14T04:48:50.537Z,3.92
2022-09-14T04:51:23.575Z,3.97
2022-09-14T04:53:53.253Z,3.78
2022-09-14T04:56:24.672Z,2.63
2022-09-14T04:58:56.422Z,3.08
2022-09-14T05:01:26.445Z,1.98
2022-09-14T05:03:54.432Z,2.60
2022-09-14T05:06:24.325Z,3.13
2022-09-14T05:08:52.651Z,4.30
2022-09-14T05:11:26.566Z,7.20
2022-09-14T05:13:55.210Z,4.18
2022-09-14T05:16:26.465Z,8.20
2022-09-14T05:19:01.400Z,4.32
2022-09-14T05:21:29.722Z,7.75
2022-09-14T05:23:58.899Z,8.75
2022-09-14T05:26:27.991Z,9.23
2022-09-14T05:28:56.866Z,12.77
2022-09-14T05:31:25.169Z,6.82
2022-09-14T05:33:53.161Z,7.78
2022-09-14T05:36:20.493Z,10.77
2022-09-14T05:38:47.653Z,6.20
2022-09-14T05:41:16.155Z,10.65
2022-09-14T05:43:43.253Z,8.93
2022-09-14T05:46:14.412Z,4.88
2022-09-14T05:48:41.815Z,6.70
2022-09-14T05:51:15.894Z,8.70
2022-09-14T05:53:47.000Z,12.23
2022-09-14T05:56:14.829Z,9.52
2022-09-14T05:58:42.899Z,12.10
2022-09-14T06:01:16.267Z,11.85
2022-09-14T06:03:43.973Z,11.55
2022-09-14T06:06:13.006Z,8.40
2022-09-14T06:08:41.047Z,5.70
2022-09-14T06:11:10.696Z,4.43
2022-09-14T06:13:38.001Z,3.58
2022-09-14T06:16:06.926Z,3.15
2022-09-14T06:18:35.473Z,2.97
2022-09-14T06:21:03.813Z,3.10
2022-09-14T06:23:31.685Z,2.67
2022-09-14T06:26:03.738Z,2.42
2022-09-14T06:28:31.814Z,2.42
2022-09-14T06:30:58.808Z,2.03
2022-09-14T06:33:26.286Z,2.10
2022-09-14T06:35:57.931Z,2.35
2022-09-14T06:38:25.473Z,3.38
2022-09-14T06:40:59.761Z,4.72
2022-09-14T06:43:28.433Z,2.10
2022-09-14T06:46:11.715Z,1.80
2022-09-14T06:48:41.333Z,1.90
2022-09-14T06:51:23.246Z,1.85
2022-09-14T06:53:50.867Z,2.23
2022-09-14T06:56:18.941Z,2.22
2022-09-14T06:58:46.072Z,2.63
2022-09-14T07:01:15.761Z,2.00
2022-09-14T07:03:44.155Z,2.17
2022-09-14T07:06:17.807Z,1.95
2022-09-14T07:08:45.675Z,1.75
2022-09-14T07:11:14.276Z,2.20
2022-09-14T07:13:41.543Z,1.95
2022-09-14T07:16:08.805Z,2.25
2022-09-14T07:18:36.463Z,2.70
2022-09-14T07:21:09.761Z,2.70
2022-09-14T07:23:39.099Z,1.70
2022-09-14T07:26:08.884Z,2.20
2022-09-14T07:28:36.982Z,1.95
2022-09-14T07:31:05.719Z,2.17
2022-09-14T07:33:33.786Z,2.35
2022-09-14T07:36:11.689Z,1.80
2022-09-14T07:38:52.121Z,1.80
2022-09-14T07:41:23.994Z,2.03
2022-09-14T07:43:52.634Z,2.23
2022-09-14T07:46:20.547Z,1.92
2022-09-14T07:48:49.012Z,1.50
2022-09-14T07:51:16.095Z,1.63
2022-09-14T07:53:43.875Z,1.80
2022-09-14T07:56:12.190Z,1.33
2022-09-14T07:58:39.638Z,1.60
2022-09-14T08:01:09.278Z,1.73
2022-09-14T08:03:36.456Z,1.52
2022-09-14T08:06:05.969Z,1.50
2022-09-14T08:08:36.214Z,1.60
2022-09-14T08:11:32.319Z,2.10
2022-09-14T08:14:01.411Z,2.17
2022-09-14T08:16:30.359Z,1.80
2022-09-14T08:19:00.610Z,1.75
2022-09-14T08:21:30.161Z,1.60
2022-09-14T08:23:58.081Z,1.50
2022-09-14T08:26:26.569Z,1.60
2022-09-14T08:28:54.829Z,1.30
2022-09-14T08:31:28.612Z,1.70
2022-09-14T08:34:01.230Z,1.20
2022-09-14T08:36:32.904Z,1.27
2022-09-14T08:39:00.800Z,1.00
2022-09-14T08:41:29.202Z,1.23
2022-09-14T08:44:22.994Z,1.42
2022-09-14T08:47:04.393Z,1.50
2022-09-14T08:49:37.811Z,1.10
2022-09-14T08:52:05.973Z,1.48
2022-09-14T08:54:33.435Z,1.00
2022-09-14T08:57:13.071Z,1.02
2022-09-14T09:00:09.681Z,0.95
2022-09-14T09:02:59.548Z,1.02
2022-09-14T09:05:54.505Z,0.82
2022-09-14T09:08:40.187Z,0.90
2022-09-14T09:11:15.384Z,0.95
2022-09-14T09:13:44.239Z,1.10
2022-09-14T09:16:13.447Z,0.70
2022-09-14T09:18:44.812Z,0.77
2022-09-14T09:21:19.486Z,0.65
2022-09-14T09:23:46.929Z,1.00
2022-09-14T09:26:26.055Z,0.82
2022-09-14T09:28:58.297Z,1.10
2022-09-14T09:31:44.298Z,0.80
2022-09-14T09:34:16.052Z,0.70
2022-09-14T09:36:51.944Z,1.10
2022-09-14T09:39:19.404Z,0.93
2022-09-14T09:41:53.023Z,0.70
2022-09-14T09:44:20.568Z,0.98
2022-09-14T09:46:59.769Z,1.00
2022-09-14T09:49:35.121Z,0.80
2022-09-14T09:52:16.408Z,1.27
2022-09-14T09:54:51.077Z,0.80
2022-09-14T09:57:35.983Z,0.80
2022-09-14T10:00:21.878Z,1.13
2022-09-14T10:02:49.561Z,1.00
2022-09-14T10:05:31.839Z,1.05
2022-09-14T10:08:01.185Z,0.90
2022-09-14T10:10:39.831Z,0.93
2022-09-14T10:13:20.459Z,1.10
2022-09-14T10:15:49.271Z,1.42
2022-09-14T10:18:20.248Z,1.00
2022-09-14T10:20:53.052Z,0.73
2022-09-14T10:23:19.897Z,1.00
2022-09-14T10:25:52.388Z,0.82
2022-09-14T10:28:22.146Z,0.80
2022-09-14T10:30:59.796Z,1.00
2022-09-14T10:33:26.870Z,0.85
2022-09-14T10:35:56.899Z,1.02
2022-09-14T10:38:36.722Z,0.60
2022-09-14T10:41:23.351Z,0.85
2022-09-14T10:44:19.706Z,0.70
2022-09-14T10:47:04.691Z,0.73
2022-09-14T10:49:41.259Z,1.10
2022-09-14T10:52:27.029Z,1.00
2022-09-14T10:55:18.911Z,0.80
2022-09-14T11:00:21.088Z,1.00
2022-09-14T11:02:56.139Z,0.70
2022-09-14T11:05:31.405Z,1.00
2022-09-14T11:08:19.037Z,1.20
2022-09-14T11:11:09.337Z,1.30
2022-09-14T11:13:52.958Z,1.33
2022-09-14T11:16:36.861Z,1.10
2022-09-14T11:19:35.499Z,1.35
2022-09-14T11:22:22.633Z,1.30
2022-09-14T11:24:54.375Z,1.23
2022-09-14T11:30:16.744Z,1.65
2022-09-14T11:32:56.027Z,1.10
2022-09-14T11:35:36.517Z,1.48
2022-09-14T11:38:28.195Z,1.33
2022-09-14T11:41:01.370Z,1.70
2022-09-14T11:43:43.048Z,1.42
2022-09-14T11:49:29.976Z,5.88
2022-09-14T11:52:20.998Z,2.53
2022-09-14T11:54:51.986Z,2.73
2022-09-14T11:57:26.028Z,1.63
2022-09-14T11:59:55.583Z,1.92
2022-09-14T12:02:25.925Z,2.30
2022-09-14T12:05:06.783Z,1.85
2022-09-14T12:07:42.603Z,1.85
2022-09-14T12:10:15.727Z,2.00
2022-09-14T12:12:51.320Z,1.05
2022-09-14T12:15:29.793Z,1.60
2022-09-14T12:18:05.663Z,1.35
2022-09-14T12:20:41.023Z,1.90
2022-09-14T12:23:21.183Z,1.27
2022-09-14T12:26:06.546Z,1.00
2022-09-14T12:28:36.239Z,1.08
2022-09-14T12:31:03.131Z,1.70
2022-09-14T12:33:33.714Z,1.77
2022-09-14T12:36:33.773Z,1.48
2022-09-14T12:39:19.972Z,1.30
2022-09-14T12:41:46.866Z,1.23
2022-09-14T12:44:34.094Z,1.10
2022-09-14T12:47:25.843Z,1.08
2022-09-14T12:49:54.360Z,1.80
2022-09-14T12:52:34.947Z,1.55
2022-09-14T12:55:17.218Z,1.33
2022-09-14T12:57:56.479Z,1.25
2022-09-14T13:00:23.485Z,1.65
2022-09-14T13:03:02.443Z,0.98
2022-09-14T13:05:32.549Z,2.05
2022-09-14T13:07:59.797Z,1.65
2022-09-14T13:10:33.754Z,1.52
2022-09-14T13:13:08.618Z,1.95
2022-09-14T13:15:45.406Z,1.30
2022-09-14T13:18:18.524Z,1.58
2022-09-14T13:20:57.736Z,1.80
2022-09-14T13:23:36.459Z,1.80
2022-09-14T13:26:16.482Z,1.40
2022-09-14T13:28:46.626Z,1.65
2022-09-14T13:31:18.493Z,1.23
2022-09-14T13:33:54.384Z,1.58
2022-09-14T13:36:28.000Z,1.52
2022-09-14T13:38:58.496Z,1.63
2022-09-14T13:41:25.886Z,1.85
2022-09-14T13:43:54.706Z,1.30
2022-09-14T13:46:24.262Z,1.73
2022-09-14T13:48:52.471Z,1.80
2022-09-14T13:51:25.058Z,1.60
2022-09-14T13:53:57.752Z,2.00
2022-09-14T13:56:26.947Z,1.10
2022-09-14T13:59:12.094Z,1.20
2022-09-14T14:01:46.560Z,1.50
2022-09-14T14:04:34.902Z,1.17
2022-09-14T14:07:07.084Z,1.63
2022-09-14T14:09:53.552Z,1.17
2022-09-14T14:12:37.017Z,2.00
2022-09-14T14:15:12.310Z,0.90
2022-09-14T14:17:41.569Z,1.02
2022-09-14T14:20:37.919Z,1.30
2022-09-14T14:23:10.940Z,1.23
2022-09-14T14:25:46.191Z,1.15
2022-09-14T14:28:23.862Z,1.00
2022-09-14T14:30:51.577Z,1.13
2022-09-14T14:33:19.333Z,1.13
2022-09-14T14:35:48.864Z,1.10
2022-09-14T14:38:16.381Z,1.15
2022-09-14T14:40:44.885Z,0.80
2022-09-14T14:43:25.062Z,1.00
2022-09-14T14:45:59.123Z,0.90
2022-09-14T14:48:27.788Z,0.90
2022-09-14T14:50:55.834Z,1.23
2022-09-14T14:53:26.243Z,0.90
2022-09-14T14:55:53.452Z,1.00
2022-09-14T14:58:22.163Z,1.50
2022-09-14T15:00:49.818Z,0.93
2022-09-14T15:03:19.027Z,0.98
2022-09-14T15:05:47.104Z,1.45
2022-09-14T15:08:17.360Z,0.98
2022-09-14T15:10:44.407Z,0.70
2022-09-14T15:13:12.670Z,0.95
2022-09-14T15:15:45.640Z,1.10
2022-09-14T15:18:12.722Z,1.02
2022-09-14T15:20:39.802Z,1.20
2022-09-14T15:23:06.730Z,1.10
2022-09-14T15:25:33.748Z,1.15
2022-09-14T15:28:00.675Z,1.00
2022-09-14T15:30:27.591Z,0.88
2022-09-14T15:32:55.042Z,0.73
2022-09-14T15:35:22.157Z,0.90
2022-09-14T15:37:49.026Z,1.60
2022-09-14T15:40:16.279Z,0.90
2022-09-14T15:42:43.259Z,0.90
2022-09-14T15:45:10.801Z,0.80
2022-09-14T15:47:42.473Z,1.17
2022-09-14T15:50:10.782Z,1.05
2022-09-14T15:52:39.009Z,1.50
2022-09-14T15:55:07.612Z,0.90
2022-09-14T15:57:34.678Z,1.00
2022-09-14T16:00:03.434Z,0.88
2022-09-14T16:02:30.366Z,0.80
2022-09-14T16:04:57.228Z,0.93
2022-09-14T16:07:24.470Z,1.05
2022-09-14T16:09:51.390Z,1.10
2022-09-14T16:12:18.408Z,1.83
2022-09-14T16:14:45.298Z,1.02
2022-09-14T16:17:12.297Z,1.08
2022-09-14T16:19:39.218Z,1.05
2022-09-14T16:22:06.306Z,1.00
2022-09-14T16:24:38.546Z,0.90
2022-09-14T16:27:05.573Z,0.90
2022-09-14T16:29:32.471Z,0.90
2022-09-14T16:31:59.496Z,0.88
2022-09-14T16:34:29.016Z,0.90
2022-09-14T16:36:58.840Z,1.13
2022-09-14T16:39:28.840Z,0.82
2022-09-14T16:41:56.170Z,1.05
2022-09-14T16:44:26.726Z,1.00
2022-09-14T16:46:57.668Z,0.85
2022-09-14T16:49:27.883Z,1.08
2022-09-14T16:51:56.368Z,1.00
2022-09-14T16:54:25.535Z,1.00
2022-09-14T16:56:56.316Z,1.00
2022-09-14T16:59:23.436Z,1.20
2022-09-14T17:01:54.727Z,1.13
2022-09-14T17:04:22.875Z,1.77
2022-09-14T17:06:51.866Z,1.45
2022-09-14T17:09:25.526Z,1.25
2022-09-14T17:11:54.316Z,1.60
2022-09-14T17:14:25.050Z,1.42
2022-09-14T17:16:52.642Z,1.70
2022-09-14T17:19:20.042Z,1.15
2022-09-14T17:21:48.379Z,1.20
2022-09-14T17:24:16.770Z,1.10
2022-09-14T17:26:44.355Z,0.90
2022-09-14T17:29:12.279Z,1.00
2022-09-14T17:31:41.357Z,0.90
2022-09-14T17:34:10.497Z,1.10
2022-09-14T17:36:38.316Z,1.10
2022-09-14T17:39:11.378Z,0.95
2022-09-14T17:41:39.715Z,0.80
2022-09-14T17:44:08.093Z,1.02
2022-09-14T17:46:39.766Z,0.90
2022-09-14T17:49:13.729Z,0.95
2022-09-14T17:51:40.965Z,1.05
2022-09-14T17:54:08.089Z,1.10
2022-09-14T17:56:35.248Z,1.08
2022-09-14T17:59:14.253Z,0.90
2022-09-14T18:01:41.484Z,0.95
2022-09-14T18:04:10.860Z,1.08
2022-09-14T18:06:46.248Z,1.30
2022-09-14T18:09:17.237Z,1.00
2022-09-14T18:11:45.358Z,1.23
2022-09-14T18:14:15.825Z,1.25
2022-09-14T18:16:44.143Z,1.30
2022-09-14T18:19:11.379Z,1.00
2022-09-14T18:21:38.547Z,1.20
2022-09-14T18:24:05.622Z,1.10
2022-09-14T18:26:33.112Z,1.00
2022-09-14T18:29:00.611Z,1.17
2022-09-14T18:31:28.076Z,1.08
2022-09-14T18:33:59.395Z,1.25
2022-09-14T18:36:29.264Z,1.03
2022-09-14T18:38:57.592Z,1.50
2022-09-14T18:41:24.577Z,1.25
2022-09-14T18:43:53.388Z,0.90
2022-09-14T18:46:24.467Z,1.02
2022-09-14T18:48:56.459Z,1.20
2022-09-14T18:51:23.598Z,1.20
2022-09-14T18:54:00.142Z,0.80
2022-09-14T18:56:28.101Z,0.90
2022-09-14T18:58:55.664Z,0.98
2022-09-14T19:01:22.810Z,1.10
2022-09-14T19:03:50.200Z,0.75
2022-09-14T19:06:19.829Z,1.15
2022-09-14T19:08:47.442Z,1.02
2022-09-14T19:11:19.011Z,1.25
2022-09-14T19:13:47.133Z,1.67
2022-09-14T19:16:17.569Z,1.25
2022-09-14T19:18:49.833Z,1.70
2022-09-14T19:23:57.377Z,1.08
2022-09-14T19:26:24.463Z,1.17
2022-09-14T19:28:51.476Z,1.40
2022-09-14T19:31:21.131Z,1.40
2022-09-14T19:33:48.430Z,1.20
2022-09-14T19:36:20.049Z,1.63
2022-09-14T19:38:48.721Z,1.00
2022-09-14T19:41:16.488Z,1.13
2022-09-14T19:43:44.285Z,1.15
2022-09-14T19:46:15.092Z,1.02
2022-09-14T19:48:42.784Z,1.38
2022-09-14T19:51:18.750Z,1.42
2022-09-14T19:53:50.608Z,1.10
2022-09-14T19:56:21.315Z,0.80
2022-09-14T19:58:51.185Z,1.30
2022-09-14T20:01:20.383Z,1.08
2022-09-14T20:03:48.823Z,1.10
2022-09-14T20:06:23.603Z,1.25
2022-09-14T20:09:12.571Z,1.25
2022-09-14T20:11:40.860Z,1.00
2022-09-14T20:14:10.845Z,1.05
2022-09-14T20:16:40.531Z,0.90
2022-09-14T20:19:28.948Z,0.93
2022-09-14T20:21:56.432Z,0.98
2022-09-14T20:24:26.450Z,1.23
2022-09-14T20:26:59.494Z,1.00
2022-09-14T20:29:31.431Z,1.63
2022-09-14T20:31:59.383Z,4.35
2022-09-14T20:34:26.694Z,2.03
2022-09-14T20:36:54.307Z,2.08
2022-09-14T20:39:22.792Z,2.30
2022-09-14T20:41:53.245Z,1.80
2022-09-14T20:44:22.473Z,1.10
2022-09-14T20:46:50.696Z,1.00
2022-09-14T20:49:20.878Z,1.02
2022-09-14T20:51:47.909Z,0.85
2022-09-14T20:54:17.398Z,0.90
2022-09-14T20:56:46.198Z,1.10
2022-09-14T20:59:15.690Z,0.82
2022-09-14T21:01:45.025Z,1.25
2022-09-14T21:04:17.761Z,1.20
2022-09-14T21:06:47.358Z,1.00
2022-09-14T21:09:16.341Z,1.10
2022-09-14T21:11:45.823Z,1.00
2022-09-14T21:14:17.945Z,1.02
2022-09-14T21:16:47.053Z,0.80
2022-09-14T21:19:19.603Z,0.82
2022-09-14T21:21:47.934Z,0.93
2022-09-14T21:24:15.990Z,1.00
2022-09-14T21:26:44.204Z,1.13
2022-09-14T21:29:14.890Z,1.27
2022-09-14T21:31:42.113Z,1.08
2022-09-14T21:34:10.390Z,1.02
2022-09-14T21:36:43.566Z,0.90
2022-09-14T21:39:16.004Z,0.73
2022-09-14T21:41:44.929Z,1.20
2022-09-14T21:44:13.416Z,0.95
2022-09-14T21:46:41.077Z,1.08
2022-09-14T21:49:12.703Z,0.90
2022-09-14T21:51:40.111Z,0.70
2022-09-14T21:54:09.478Z,1.00
2022-09-14T21:56:38.775Z,0.70
2022-09-14T21:59:17.844Z,0.98
2022-09-14T22:01:45.077Z,0.90
2022-09-14T22:04:20.400Z,0.88
2022-09-14T22:06:53.985Z,0.70
2022-09-14T22:09:24.285Z,1.13
2022-09-14T22:11:51.425Z,0.80
2022-09-14T22:14:21.089Z,0.85
2022-09-14T22:16:49.250Z,1.00
2022-09-14T22:19:21.004Z,0.80
2022-09-14T22:21:48.607Z,1.02
2022-09-14T22:24:23.658Z,0.80
2022-09-14T22:26:50.793Z,1.13
2022-09-14T22:29:18.738Z,0.90
2022-09-14T22:31:46.359Z,1.20
2022-09-14T22:34:14.199Z,0.90
2022-09-14T22:36:41.779Z,0.98
2022-09-14T22:39:09.926Z,0.88
2022-09-14T22:41:37.789Z,1.00
2022-09-14T22:44:05.562Z,1.00
2022-09-14T22:46:33.308Z,1.55
2022-09-14T22:49:00.358Z,1.20
2022-09-14T22:51:28.683Z,1.30
2022-09-14T22:53:56.788Z,1.20
2022-09-14T22:56:25.279Z,1.30
2022-09-14T22:58:53.014Z,1.15
2022-09-14T23:01:25.881Z,1.10
2022-09-14T23:03:58.560Z,1.10
2022-09-14T23:06:30.951Z,1.00
2022-09-14T23:11:25.068Z,1.00
2022-09-14T23:13:52.043Z,0.95
2022-09-14T23:16:26.153Z,1.17
2022-09-14T23:18:55.915Z,1.10
2022-09-14T23:21:23.394Z,1.00
2022-09-14T23:23:59.791Z,0.90
2022-09-14T23:26:28.144Z,1.13
2022-09-14T23:29:09.522Z,1.23
2022-09-14T23:31:36.647Z,1.00
2022-09-14T23:34:04.731Z,1.13
2022-09-14T23:36:31.994Z,0.90
2022-09-14T23:38:59.026Z,1.23
2022-09-14T23:41:27.340Z,1.10
2022-09-14T23:43:54.957Z,1.05
2022-09-14T23:46:23.146Z,0.90
2022-09-14T23:48:50.435Z,1.08
2022-09-14T23:51:17.707Z,0.95
2022-09-14T23:53:44.828Z,0.80
2022-09-14T23:56:12.229Z,1.10
2022-09-14T23:58:39.861Z,0.90
